sensor_id;sensor_type;location;lat;lon;timestamp;P1;durP1;ratioP1;P2;durP2;ratioP2
75997;SDS011;64685;48.762;44.822;2022-12-28T00:00:29;18.15;;;5.88;;
75997;SDS011;64685;48.762;44.822;2022-12-28T00:02:55;15.68;;;5.80;;
75997;SDS011;64685;48.762;44.822;2022-12-28T00:05:21;11.38;;;4.28;;
75997;SDS011;64685;48.762;44.822;2022-12-28T00:07:47;15.57;;;5.50;;
75997;SDS011;64685;48.762;44.822;2022-12-28T00:10:14;13.10;;;4.72;;
75997;SDS011;64685;48.762;44.822;2022-12-28T00:15:05;7.68;;;2.65;;
75997;SDS011;64685;48.762;44.822;2022-12-28T00:17:31;8.73;;;3.92;;
75997;SDS011;64685;48.762;44.822;2022-12-28T00:19:57;12.30;;;3.80;;
75997;SDS011;64685;48.762;44.822;2022-12-28T00:22:24;8.65;;;3.80;;
75997;SDS011;64685;48.762;44.822;2022-12-28T00:24:51;11.13;;;4.07;;
75997;SDS011;64685;48.762;44.822;2022-12-28T00:27:17;8.88;;;3.55;;
75997;SDS011;64685;48.762;44.822;2022-12-28T00:29:42;10.00;;;3.85;;
75997;SDS011;64685;48.762;44.822;2022-12-28T00:32:08;12.90;;;5.13;;
75997;SDS011;64685;48.762;44.822;2022-12-28T00:34:34;9.93;;;3.70;;
75997;SDS011;64685;48.762;44.822;2022-12-28T00:37:00;12.70;;;4.05;;
75997;SDS011;64685;48.762;44.822;2022-12-28T00:39:25;9.80;;;4.35;;
75997;SDS011;64685;48.762;44.822;2022-12-28T00:41:51;8.68;;;3.63;;
75997;SDS011;64685;48.762;44.822;2022-12-28T00:44:17;11.57;;;4.10;;
75997;SDS011;64685;48.762;44.822;2022-12-28T00:46:43;9.10;;;4.10;;
75997;SDS011;64685;48.762;44.822;2022-12-28T00:51:35;9.98;;;3.75;;
75997;SDS011;64685;48.762;44.822;2022-12-28T00:54:01;10.73;;;4.05;;
75997;SDS011;64685;48.762;44.822;2022-12-28T00:56:27;11.48;;;4.00;;
75997;SDS011;64685;48.762;44.822;2022-12-28T00:58:56;9.63;;;3.85;;
75997;SDS011;64685;48.762;44.822;2022-12-28T01:01:22;7.15;;;2.70;;
75997;SDS011;64685;48.762;44.822;2022-12-28T01:03:49;11.63;;;3.90;;
75997;SDS011;64685;48.762;44.822;2022-12-28T01:06:17;13.15;;;4.45;;
75997;SDS011;64685;48.762;44.822;2022-12-28T01:08:43;11.30;;;4.72;;
75997;SDS011;64685;48.762;44.822;2022-12-28T01:13:45;9.25;;;3.63;;
75997;SDS011;64685;48.762;44.822;2022-12-28T01:16:12;8.13;;;3.60;;
75997;SDS011;64685;48.762;44.822;2022-12-28T01:18:38;16.70;;;6.65;;
75997;SDS011;64685;48.762;44.822;2022-12-28T01:21:07;8.48;;;3.78;;
75997;SDS011;64685;48.762;44.822;2022-12-28T01:23:33;11.80;;;5.22;;
75997;SDS011;64685;48.762;44.822;2022-12-28T01:26:02;12.18;;;4.78;;
75997;SDS011;64685;48.762;44.822;2022-12-28T01:28:28;11.43;;;4.30;;
75997;SDS011;64685;48.762;44.822;2022-12-28T01:30:55;11.68;;;4.32;;
75997;SDS011;64685;48.762;44.822;2022-12-28T01:33:21;8.70;;;2.95;;
75997;SDS011;64685;48.762;44.822;2022-12-28T01:35:46;15.40;;;5.28;;
75997;SDS011;64685;48.762;44.822;2022-12-28T01:38:12;13.27;;;4.10;;
75997;SDS011;64685;48.762;44.822;2022-12-28T01:40:41;12.68;;;4.82;;
75997;SDS011;64685;48.762;44.822;2022-12-28T01:43:11;9.95;;;4.40;;
75997;SDS011;64685;48.762;44.822;2022-12-28T01:45:38;11.55;;;4.10;;
75997;SDS011;64685;48.762;44.822;2022-12-28T01:48:04;13.00;;;4.38;;
75997;SDS011;64685;48.762;44.822;2022-12-28T01:50:30;8.00;;;3.22;;
75997;SDS011;64685;48.762;44.822;2022-12-28T01:52:59;10.43;;;3.63;;
75997;SDS011;64685;48.762;44.822;2022-12-28T01:55:35;12.57;;;4.10;;
75997;SDS011;64685;48.762;44.822;2022-12-28T01:58:04;7.72;;;3.28;;
75997;SDS011;64685;48.762;44.822;2022-12-28T02:00:31;10.20;;;3.47;;
75997;SDS011;64685;48.762;44.822;2022-12-28T02:03:05;9.25;;;3.42;;
75997;SDS011;64685;48.762;44.822;2022-12-28T02:05:33;8.43;;;3.55;;
75997;SDS011;64685;48.762;44.822;2022-12-28T02:10:26;15.75;;;4.78;;
75997;SDS011;64685;48.762;44.822;2022-12-28T02:12:53;7.63;;;2.47;;
75997;SDS011;64685;48.762;44.822;2022-12-28T02:15:20;7.00;;;3.53;;
75997;SDS011;64685;48.762;44.822;2022-12-28T02:17:46;10.43;;;3.22;;
75997;SDS011;64685;48.762;44.822;2022-12-28T02:20:12;7.20;;;2.72;;
75997;SDS011;64685;48.762;44.822;2022-12-28T02:27:53;9.35;;;3.70;;
75997;SDS011;64685;48.762;44.822;2022-12-28T02:30:24;8.93;;;3.78;;
75997;SDS011;64685;48.762;44.822;2022-12-28T02:35:37;8.35;;;2.38;;
75997;SDS011;64685;48.762;44.822;2022-12-28T02:38:09;9.48;;;2.22;;
75997;SDS011;64685;48.762;44.822;2022-12-28T02:41:13;10.20;;;4.22;;
75997;SDS011;64685;48.762;44.822;2022-12-28T02:43:31;12.50;;;3.45;;
75997;SDS011;64685;48.762;44.822;2022-12-28T02:46:07;7.57;;;2.90;;
75997;SDS011;64685;48.762;44.822;2022-12-28T02:48:51;9.82;;;3.80;;
75997;SDS011;64685;48.762;44.822;2022-12-28T02:57:01;8.13;;;3.72;;
75997;SDS011;64685;48.762;44.822;2022-12-28T03:01:59;6.93;;;2.92;;
75997;SDS011;64685;48.762;44.822;2022-12-28T03:07:06;8.82;;;3.40;;
75997;SDS011;64685;48.762;44.822;2022-12-28T03:13:25;7.18;;;3.00;;
75997;SDS011;64685;48.762;44.822;2022-12-28T03:15:24;10.23;;;2.97;;
75997;SDS011;64685;48.762;44.822;2022-12-28T03:18:09;7.80;;;2.65;;
75997;SDS011;64685;48.762;44.822;2022-12-28T03:20:55;8.43;;;3.70;;
75997;SDS011;64685;48.762;44.822;2022-12-28T03:23:42;7.32;;;2.88;;
75997;SDS011;64685;48.762;44.822;2022-12-28T03:26:29;11.48;;;3.60;;
75997;SDS011;64685;48.762;44.822;2022-12-28T03:29:16;12.35;;;4.05;;
75997;SDS011;64685;48.762;44.822;2022-12-28T03:32:02;10.95;;;4.20;;
75997;SDS011;64685;48.762;44.822;2022-12-28T03:34:29;12.90;;;4.95;;
75997;SDS011;64685;48.762;44.822;2022-12-28T03:42:28;13.30;;;4.05;;
75997;SDS011;64685;48.762;44.822;2022-12-28T03:47:41;7.63;;;2.58;;
75997;SDS011;64685;48.762;44.822;2022-12-28T03:50:09;12.02;;;4.38;;
75997;SDS011;64685;48.762;44.822;2022-12-28T03:52:37;11.68;;;4.88;;
75997;SDS011;64685;48.762;44.822;2022-12-28T03:55:04;7.70;;;2.72;;
75997;SDS011;64685;48.762;44.822;2022-12-28T03:57:30;10.85;;;3.72;;
75997;SDS011;64685;48.762;44.822;2022-12-28T03:59:57;7.93;;;2.58;;
75997;SDS011;64685;48.762;44.822;2022-12-28T04:02:22;11.50;;;5.38;;
75997;SDS011;64685;48.762;44.822;2022-12-28T04:04:48;11.75;;;4.65;;
75997;SDS011;64685;48.762;44.822;2022-12-28T04:07:14;12.98;;;4.78;;
75997;SDS011;64685;48.762;44.822;2022-12-28T04:09:40;9.48;;;3.22;;
75997;SDS011;64685;48.762;44.822;2022-12-28T04:12:09;12.20;;;4.53;;
75997;SDS011;64685;48.762;44.822;2022-12-28T04:15:11;11.95;;;4.50;;
75997;SDS011;64685;48.762;44.822;2022-12-28T04:17:37;8.73;;;3.63;;
75997;SDS011;64685;48.762;44.822;2022-12-28T04:20:03;15.98;;;5.80;;
75997;SDS011;64685;48.762;44.822;2022-12-28T04:22:29;11.00;;;3.38;;
75997;SDS011;64685;48.762;44.822;2022-12-28T04:24:57;10.57;;;4.53;;
75997;SDS011;64685;48.762;44.822;2022-12-28T04:27:23;17.08;;;5.25;;
75997;SDS011;64685;48.762;44.822;2022-12-28T04:29:52;15.32;;;5.10;;
75997;SDS011;64685;48.762;44.822;2022-12-28T04:32:18;9.85;;;3.53;;
75997;SDS011;64685;48.762;44.822;2022-12-28T04:34:45;13.13;;;4.80;;
75997;SDS011;64685;48.762;44.822;2022-12-28T04:37:11;12.82;;;4.07;;
75997;SDS011;64685;48.762;44.822;2022-12-28T04:39:37;9.60;;;3.10;;
75997;SDS011;64685;48.762;44.822;2022-12-28T04:42:02;9.23;;;3.83;;
75997;SDS011;64685;48.762;44.822;2022-12-28T04:44:28;14.90;;;5.40;;
75997;SDS011;64685;48.762;44.822;2022-12-28T04:46:54;15.63;;;5.00;;
75997;SDS011;64685;48.762;44.822;2022-12-28T04:49:20;12.77;;;4.68;;
75997;SDS011;64685;48.762;44.822;2022-12-28T04:51:46;12.63;;;4.18;;
75997;SDS011;64685;48.762;44.822;2022-12-28T04:54:12;14.15;;;6.20;;
75997;SDS011;64685;48.762;44.822;2022-12-28T04:56:38;8.80;;;3.38;;
75997;SDS011;64685;48.762;44.822;2022-12-28T04:59:04;13.80;;;5.25;;
75997;SDS011;64685;48.762;44.822;2022-12-28T05:01:30;8.07;;;3.45;;
75997;SDS011;64685;48.762;44.822;2022-12-28T05:03:56;17.80;;;4.80;;
75997;SDS011;64685;48.762;44.822;2022-12-28T05:06:22;11.55;;;3.45;;
75997;SDS011;64685;48.762;44.822;2022-12-28T05:08:48;9.52;;;3.50;;
75997;SDS011;64685;48.762;44.822;2022-12-28T05:11:16;10.15;;;3.70;;
75997;SDS011;64685;48.762;44.822;2022-12-28T05:13:43;7.70;;;2.95;;
75997;SDS011;64685;48.762;44.822;2022-12-28T05:16:12;13.63;;;5.35;;
75997;SDS011;64685;48.762;44.822;2022-12-28T05:18:38;8.70;;;2.20;;
75997;SDS011;64685;48.762;44.822;2022-12-28T05:21:05;8.57;;;2.65;;
75997;SDS011;64685;48.762;44.822;2022-12-28T05:23:31;10.63;;;4.20;;
75997;SDS011;64685;48.762;44.822;2022-12-28T05:25:57;9.02;;;3.00;;
75997;SDS011;64685;48.762;44.822;2022-12-28T05:28:23;9.35;;;3.80;;
75997;SDS011;64685;48.762;44.822;2022-12-28T05:30:49;9.48;;;3.83;;
75997;SDS011;64685;48.762;44.822;2022-12-28T05:33:15;8.35;;;3.33;;
75997;SDS011;64685;48.762;44.822;2022-12-28T05:35:41;7.95;;;3.58;;
75997;SDS011;64685;48.762;44.822;2022-12-28T05:38:07;5.85;;;2.00;;
75997;SDS011;64685;48.762;44.822;2022-12-28T05:40:33;8.88;;;3.13;;
75997;SDS011;64685;48.762;44.822;2022-12-28T05:42:58;12.65;;;3.88;;
75997;SDS011;64685;48.762;44.822;2022-12-28T05:45:24;12.52;;;3.55;;
75997;SDS011;64685;48.762;44.822;2022-12-28T05:47:50;11.60;;;3.53;;
75997;SDS011;64685;48.762;44.822;2022-12-28T05:50:16;13.95;;;5.85;;
75997;SDS011;64685;48.762;44.822;2022-12-28T05:52:41;9.32;;;3.05;;
75997;SDS011;64685;48.762;44.822;2022-12-28T05:55:07;8.30;;;2.90;;
75997;SDS011;64685;48.762;44.822;2022-12-28T05:57:33;13.45;;;4.15;;
75997;SDS011;64685;48.762;44.822;2022-12-28T05:59:59;11.02;;;3.30;;
75997;SDS011;64685;48.762;44.822;2022-12-28T06:02:25;8.48;;;3.35;;
75997;SDS011;64685;48.762;44.822;2022-12-28T06:04:54;8.13;;;2.05;;
75997;SDS011;64685;48.762;44.822;2022-12-28T06:07:20;11.80;;;3.25;;
75997;SDS011;64685;48.762;44.822;2022-12-28T06:09:46;9.40;;;3.10;;
75997;SDS011;64685;48.762;44.822;2022-12-28T06:12:12;8.43;;;2.65;;
75997;SDS011;64685;48.762;44.822;2022-12-28T06:14:37;9.48;;;2.95;;
75997;SDS011;64685;48.762;44.822;2022-12-28T06:17:03;7.25;;;2.35;;
75997;SDS011;64685;48.762;44.822;2022-12-28T06:19:29;5.70;;;2.13;;
75997;SDS011;64685;48.762;44.822;2022-12-28T06:21:55;8.70;;;2.78;;
75997;SDS011;64685;48.762;44.822;2022-12-28T06:24:20;5.38;;;2.88;;
75997;SDS011;64685;48.762;44.822;2022-12-28T06:26:46;9.52;;;2.95;;
75997;SDS011;64685;48.762;44.822;2022-12-28T06:29:12;10.77;;;2.95;;
75997;SDS011;64685;48.762;44.822;2022-12-28T06:31:39;3.95;;;1.88;;
75997;SDS011;64685;48.762;44.822;2022-12-28T06:36:35;7.95;;;2.67;;
75997;SDS011;64685;48.762;44.822;2022-12-28T06:39:02;6.28;;;3.05;;
75997;SDS011;64685;48.762;44.822;2022-12-28T06:41:28;8.65;;;2.60;;
75997;SDS011;64685;48.762;44.822;2022-12-28T06:43:54;6.82;;;2.45;;
75997;SDS011;64685;48.762;44.822;2022-12-28T06:46:21;9.60;;;2.95;;
75997;SDS011;64685;48.762;44.822;2022-12-28T06:53:38;4.60;;;2.28;;
75997;SDS011;64685;48.762;44.822;2022-12-28T06:56:05;4.20;;;1.77;;
75997;SDS011;64685;48.762;44.822;2022-12-28T06:58:31;6.20;;;2.13;;
75997;SDS011;64685;48.762;44.822;2022-12-28T07:01:04;9.05;;;3.25;;
75997;SDS011;64685;48.762;44.822;2022-12-28T07:03:30;5.88;;;1.98;;
75997;SDS011;64685;48.762;44.822;2022-12-28T07:05:58;5.93;;;2.35;;
75997;SDS011;64685;48.762;44.822;2022-12-28T07:08:24;5.47;;;1.90;;
75997;SDS011;64685;48.762;44.822;2022-12-28T07:10:50;7.97;;;2.28;;
75997;SDS011;64685;48.762;44.822;2022-12-28T07:13:16;8.88;;;2.22;;
75997;SDS011;64685;48.762;44.822;2022-12-28T07:15:41;5.22;;;1.92;;
75997;SDS011;64685;48.762;44.822;2022-12-28T07:18:07;4.60;;;1.42;;
75997;SDS011;64685;48.762;44.822;2022-12-28T07:20:33;5.72;;;1.60;;
75997;SDS011;64685;48.762;44.822;2022-12-28T07:22:59;6.70;;;2.28;;
75997;SDS011;64685;48.762;44.822;2022-12-28T07:25:25;5.53;;;1.90;;
75997;SDS011;64685;48.762;44.822;2022-12-28T07:27:50;4.57;;;1.55;;
75997;SDS011;64685;48.762;44.822;2022-12-28T07:30:16;5.55;;;2.00;;
75997;SDS011;64685;48.762;44.822;2022-12-28T07:32:42;5.43;;;1.85;;
75997;SDS011;64685;48.762;44.822;2022-12-28T07:35:08;5.47;;;2.05;;
75997;SDS011;64685;48.762;44.822;2022-12-28T07:37:34;10.00;;;2.55;;
75997;SDS011;64685;48.762;44.822;2022-12-28T07:39:59;8.13;;;2.88;;
75997;SDS011;64685;48.762;44.822;2022-12-28T07:42:27;5.95;;;2.13;;
75997;SDS011;64685;48.762;44.822;2022-12-28T07:44:53;5.88;;;2.10;;
75997;SDS011;64685;48.762;44.822;2022-12-28T07:49:45;3.15;;;1.33;;
75997;SDS011;64685;48.762;44.822;2022-12-28T07:52:11;5.95;;;1.88;;
75997;SDS011;64685;48.762;44.822;2022-12-28T07:54:37;7.65;;;2.55;;
75997;SDS011;64685;48.762;44.822;2022-12-28T07:57:02;7.28;;;2.72;;
75997;SDS011;64685;48.762;44.822;2022-12-28T07:59:28;4.30;;;1.92;;
75997;SDS011;64685;48.762;44.822;2022-12-28T08:01:54;5.78;;;1.80;;
75997;SDS011;64685;48.762;44.822;2022-12-28T08:04:20;2.60;;;1.15;;
75997;SDS011;64685;48.762;44.822;2022-12-28T08:06:46;6.38;;;1.90;;
75997;SDS011;64685;48.762;44.822;2022-12-28T08:09:12;4.90;;;1.38;;
75997;SDS011;64685;48.762;44.822;2022-12-28T08:11:39;7.25;;;2.35;;
75997;SDS011;64685;48.762;44.822;2022-12-28T08:14:05;6.20;;;1.70;;
75997;SDS011;64685;48.762;44.822;2022-12-28T08:16:33;2.65;;;1.00;;
75997;SDS011;64685;48.762;44.822;2022-12-28T08:19:00;5.80;;;2.00;;
75997;SDS011;64685;48.762;44.822;2022-12-28T08:21:26;7.80;;;2.13;;
75997;SDS011;64685;48.762;44.822;2022-12-28T08:23:53;5.03;;;2.10;;
75997;SDS011;64685;48.762;44.822;2022-12-28T08:28:45;8.02;;;1.73;;
75997;SDS011;64685;48.762;44.822;2022-12-28T08:31:12;5.93;;;2.17;;
75997;SDS011;64685;48.762;44.822;2022-12-28T08:33:38;5.88;;;1.92;;
75997;SDS011;64685;48.762;44.822;2022-12-28T08:36:04;6.20;;;2.60;;
75997;SDS011;64685;48.762;44.822;2022-12-28T08:38:31;9.40;;;3.10;;
75997;SDS011;64685;48.762;44.822;2022-12-28T08:40:57;5.35;;;2.47;;
75997;SDS011;64685;48.762;44.822;2022-12-28T08:43:23;6.22;;;2.85;;
75997;SDS011;64685;48.762;44.822;2022-12-28T08:46:23;7.47;;;3.53;;
75997;SDS011;64685;48.762;44.822;2022-12-28T08:48:41;6.90;;;3.15;;
75997;SDS011;64685;48.762;44.822;2022-12-28T08:51:08;7.53;;;2.65;;
75997;SDS011;64685;48.762;44.822;2022-12-28T08:53:34;4.88;;;2.03;;
75997;SDS011;64685;48.762;44.822;2022-12-28T08:56:07;3.80;;;1.38;;
75997;SDS011;64685;48.762;44.822;2022-12-28T08:58:35;4.40;;;1.48;;
75997;SDS011;64685;48.762;44.822;2022-12-28T09:03:36;4.80;;;1.83;;
75997;SDS011;64685;48.762;44.822;2022-12-28T09:06:03;6.55;;;1.80;;
75997;SDS011;64685;48.762;44.822;2022-12-28T09:13:20;3.70;;;0.82;;
75997;SDS011;64685;48.762;44.822;2022-12-28T09:15:54;3.83;;;1.27;;
75997;SDS011;64685;48.762;44.822;2022-12-28T09:18:20;3.45;;;1.40;;
75997;SDS011;64685;48.762;44.822;2022-12-28T09:20:45;5.97;;;1.48;;
75997;SDS011;64685;48.762;44.822;2022-12-28T09:23:11;6.13;;;1.33;;
75997;SDS011;64685;48.762;44.822;2022-12-28T09:25:37;6.13;;;1.23;;
75997;SDS011;64685;48.762;44.822;2022-12-28T09:28:03;4.45;;;1.25;;
75997;SDS011;64685;48.762;44.822;2022-12-28T09:30:28;5.15;;;1.90;;
75997;SDS011;64685;48.762;44.822;2022-12-28T09:32:54;2.92;;;0.90;;
75997;SDS011;64685;48.762;44.822;2022-12-28T09:35:38;6.40;;;1.70;;
75997;SDS011;64685;48.762;44.822;2022-12-28T09:38:04;2.03;;;0.95;;
75997;SDS011;64685;48.762;44.822;2022-12-28T09:40:32;4.85;;;1.60;;
75997;SDS011;64685;48.762;44.822;2022-12-28T09:42:58;6.38;;;1.88;;
75997;SDS011;64685;48.762;44.822;2022-12-28T09:45:24;4.80;;;1.60;;
75997;SDS011;64685;48.762;44.822;2022-12-28T09:53:04;6.85;;;2.45;;
75997;SDS011;64685;48.762;44.822;2022-12-28T09:55:35;3.65;;;1.10;;
75997;SDS011;64685;48.762;44.822;2022-12-28T09:58:02;3.90;;;1.48;;
75997;SDS011;64685;48.762;44.822;2022-12-28T10:00:51;3.10;;;1.17;;
75997;SDS011;64685;48.762;44.822;2022-12-28T10:05:41;4.60;;;1.63;;
75997;SDS011;64685;48.762;44.822;2022-12-28T10:08:08;4.97;;;1.70;;
75997;SDS011;64685;48.762;44.822;2022-12-28T10:10:35;3.45;;;1.35;;
75997;SDS011;64685;48.762;44.822;2022-12-28T10:13:06;3.42;;;1.48;;
75997;SDS011;64685;48.762;44.822;2022-12-28T10:15:35;5.72;;;2.78;;
75997;SDS011;64685;48.762;44.822;2022-12-28T10:18:01;8.68;;;3.38;;
75997;SDS011;64685;48.762;44.822;2022-12-28T10:20:29;6.95;;;2.38;;
75997;SDS011;64685;48.762;44.822;2022-12-28T10:25:25;7.13;;;2.38;;
75997;SDS011;64685;48.762;44.822;2022-12-28T10:27:51;9.02;;;3.30;;
75997;SDS011;64685;48.762;44.822;2022-12-28T10:36:00;9.27;;;3.20;;
75997;SDS011;64685;48.762;44.822;2022-12-28T10:38:18;8.65;;;2.47;;
75997;SDS011;64685;48.762;44.822;2022-12-28T10:40:44;5.18;;;1.75;;
75997;SDS011;64685;48.762;44.822;2022-12-28T10:43:17;7.72;;;2.13;;
75997;SDS011;64685;48.762;44.822;2022-12-28T10:45:49;5.72;;;1.75;;
75997;SDS011;64685;48.762;44.822;2022-12-28T10:48:20;6.80;;;3.38;;
75997;SDS011;64685;48.762;44.822;2022-12-28T10:53:22;8.82;;;2.15;;
75997;SDS011;64685;48.762;44.822;2022-12-28T10:55:48;6.40;;;1.85;;
75997;SDS011;64685;48.762;44.822;2022-12-28T10:58:20;9.80;;;3.17;;
75997;SDS011;64685;48.762;44.822;2022-12-28T11:00:51;6.32;;;2.22;;
75997;SDS011;64685;48.762;44.822;2022-12-28T11:03:17;8.23;;;2.20;;
75997;SDS011;64685;48.762;44.822;2022-12-28T11:05:43;7.93;;;2.63;;
75997;SDS011;64685;48.762;44.822;2022-12-28T11:08:10;4.13;;;1.38;;
75997;SDS011;64685;48.762;44.822;2022-12-28T11:10:38;5.55;;;1.65;;
75997;SDS011;64685;48.762;44.822;2022-12-28T11:13:06;8.30;;;2.78;;
75997;SDS011;64685;48.762;44.822;2022-12-28T11:15:34;7.40;;;2.35;;
75997;SDS011;64685;48.762;44.822;2022-12-28T11:18:00;8.55;;;2.42;;
75997;SDS011;64685;48.762;44.822;2022-12-28T11:20:33;8.40;;;3.10;;
75997;SDS011;64685;48.762;44.822;2022-12-28T11:22:59;9.35;;;3.75;;
75997;SDS011;64685;48.762;44.822;2022-12-28T11:25:28;9.55;;;3.28;;
75997;SDS011;64685;48.762;44.822;2022-12-28T11:27:54;6.47;;;2.03;;
75997;SDS011;64685;48.762;44.822;2022-12-28T11:30:20;7.88;;;4.43;;
75997;SDS011;64685;48.762;44.822;2022-12-28T11:32:53;8.00;;;2.70;;
75997;SDS011;64685;48.762;44.822;2022-12-28T11:35:21;8.05;;;2.97;;
75997;SDS011;64685;48.762;44.822;2022-12-28T11:37:48;7.00;;;2.20;;
75997;SDS011;64685;48.762;44.822;2022-12-28T11:42:58;10.27;;;3.22;;
75997;SDS011;64685;48.762;44.822;2022-12-28T11:46:06;10.98;;;5.20;;
75997;SDS011;64685;48.762;44.822;2022-12-28T11:56:23;12.55;;;3.85;;
75997;SDS011;64685;48.762;44.822;2022-12-28T11:59:00;11.20;;;4.25;;
75997;SDS011;64685;48.762;44.822;2022-12-28T12:10:08;13.23;;;4.93;;
75997;SDS011;64685;48.762;44.822;2022-12-28T12:17:15;12.18;;;4.50;;
75997;SDS011;64685;48.762;44.822;2022-12-28T12:19:47;9.55;;;4.78;;
75997;SDS011;64685;48.762;44.822;2022-12-28T12:24:50;11.40;;;3.58;;
75997;SDS011;64685;48.762;44.822;2022-12-28T12:27:22;11.57;;;5.25;;
75997;SDS011;64685;48.762;44.822;2022-12-28T12:30:12;17.50;;;5.93;;
75997;SDS011;64685;48.762;44.822;2022-12-28T12:35:11;14.18;;;4.70;;
75997;SDS011;64685;48.762;44.822;2022-12-28T12:42:54;15.32;;;6.75;;
75997;SDS011;64685;48.762;44.822;2022-12-28T12:51:01;24.73;;;8.82;;
75997;SDS011;64685;48.762;44.822;2022-12-28T13:03:54;11.25;;;4.88;;
75997;SDS011;64685;48.762;44.822;2022-12-28T13:06:22;21.02;;;8.18;;
75997;SDS011;64685;48.762;44.822;2022-12-28T13:08:50;15.48;;;5.50;;
75997;SDS011;64685;48.762;44.822;2022-12-28T13:11:17;13.25;;;5.68;;
75997;SDS011;64685;48.762;44.822;2022-12-28T13:13:44;23.63;;;8.68;;
75997;SDS011;64685;48.762;44.822;2022-12-28T13:16:14;12.70;;;6.07;;
75997;SDS011;64685;48.762;44.822;2022-12-28T13:18:50;22.98;;;8.77;;
75997;SDS011;64685;48.762;44.822;2022-12-28T13:21:17;18.50;;;6.70;;
75997;SDS011;64685;48.762;44.822;2022-12-28T13:23:44;22.08;;;7.65;;
75997;SDS011;64685;48.762;44.822;2022-12-28T13:26:11;21.55;;;6.78;;
75997;SDS011;64685;48.762;44.822;2022-12-28T13:28:43;18.02;;;6.70;;
75997;SDS011;64685;48.762;44.822;2022-12-28T13:31:20;12.85;;;5.35;;
75997;SDS011;64685;48.762;44.822;2022-12-28T13:34:03;21.13;;;7.55;;
75997;SDS011;64685;48.762;44.822;2022-12-28T13:36:29;21.17;;;8.60;;
75997;SDS011;64685;48.762;44.822;2022-12-28T13:39:13;17.80;;;6.45;;
75997;SDS011;64685;48.762;44.822;2022-12-28T13:42:22;19.38;;;7.85;;
75997;SDS011;64685;48.762;44.822;2022-12-28T13:44:29;16.55;;;6.05;;
75997;SDS011;64685;48.762;44.822;2022-12-28T13:52:25;14.32;;;6.72;;
75997;SDS011;64685;48.762;44.822;2022-12-28T13:54:52;20.25;;;6.35;;
75997;SDS011;64685;48.762;44.822;2022-12-28T13:57:19;20.67;;;7.95;;
75997;SDS011;64685;48.762;44.822;2022-12-28T13:59:47;18.50;;;7.45;;
75997;SDS011;64685;48.762;44.822;2022-12-28T14:02:15;20.25;;;6.90;;
75997;SDS011;64685;48.762;44.822;2022-12-28T14:04:41;14.40;;;5.57;;
75997;SDS011;64685;48.762;44.822;2022-12-28T14:07:11;17.15;;;6.95;;
75997;SDS011;64685;48.762;44.822;2022-12-28T14:09:37;18.45;;;6.15;;
75997;SDS011;64685;48.762;44.822;2022-12-28T14:12:03;16.33;;;7.57;;
75997;SDS011;64685;48.762;44.822;2022-12-28T14:14:29;15.23;;;5.93;;
75997;SDS011;64685;48.762;44.822;2022-12-28T14:16:55;21.30;;;7.38;;
75997;SDS011;64685;48.762;44.822;2022-12-28T14:19:21;19.08;;;7.22;;
75997;SDS011;64685;48.762;44.822;2022-12-28T14:21:47;18.20;;;6.38;;
75997;SDS011;64685;48.762;44.822;2022-12-28T14:24:13;19.98;;;7.63;;
75997;SDS011;64685;48.762;44.822;2022-12-28T14:26:50;20.48;;;8.55;;
75997;SDS011;64685;48.762;44.822;2022-12-28T14:29:18;23.83;;;7.80;;
75997;SDS011;64685;48.762;44.822;2022-12-28T14:31:45;20.10;;;7.80;;
75997;SDS011;64685;48.762;44.822;2022-12-28T14:34:20;30.80;;;10.23;;
75997;SDS011;64685;48.762;44.822;2022-12-28T14:36:47;32.55;;;11.70;;
75997;SDS011;64685;48.762;44.822;2022-12-28T14:39:22;29.80;;;10.20;;
75997;SDS011;64685;48.762;44.822;2022-12-28T14:41:49;18.23;;;6.47;;
75997;SDS011;64685;48.762;44.822;2022-12-28T14:44:25;24.08;;;8.52;;
75997;SDS011;64685;48.762;44.822;2022-12-28T14:46:51;15.18;;;6.40;;
75997;SDS011;64685;48.762;44.822;2022-12-28T14:51:54;25.73;;;8.95;;
75997;SDS011;64685;48.762;44.822;2022-12-28T14:56:47;19.23;;;7.47;;
75997;SDS011;64685;48.762;44.822;2022-12-28T14:59:21;25.40;;;7.78;;
75997;SDS011;64685;48.762;44.822;2022-12-28T15:01:49;27.30;;;8.13;;
75997;SDS011;64685;48.762;44.822;2022-12-28T15:04:34;26.15;;;9.30;;
75997;SDS011;64685;48.762;44.822;2022-12-28T15:07:02;35.17;;;11.05;;
75997;SDS011;64685;48.762;44.822;2022-12-28T15:09:27;25.92;;;7.90;;
75997;SDS011;64685;48.762;44.822;2022-12-28T15:14:54;15.50;;;5.90;;
75997;SDS011;64685;48.762;44.822;2022-12-28T15:17:20;24.65;;;8.63;;
75997;SDS011;64685;48.762;44.822;2022-12-28T15:19:46;37.15;;;13.10;;
75997;SDS011;64685;48.762;44.822;2022-12-28T15:22:11;36.10;;;11.82;;
75997;SDS011;64685;48.762;44.822;2022-12-28T15:24:37;21.02;;;6.38;;
75997;SDS011;64685;48.762;44.822;2022-12-28T15:27:04;20.05;;;7.00;;
75997;SDS011;64685;48.762;44.822;2022-12-28T15:29:30;35.65;;;12.88;;
75997;SDS011;64685;48.762;44.822;2022-12-28T15:31:56;41.58;;;14.20;;
75997;SDS011;64685;48.762;44.822;2022-12-28T15:34:22;38.38;;;11.20;;
75997;SDS011;64685;48.762;44.822;2022-12-28T15:36:48;37.83;;;12.07;;
75997;SDS011;64685;48.762;44.822;2022-12-28T15:39:14;35.22;;;12.80;;
75997;SDS011;64685;48.762;44.822;2022-12-28T15:41:40;37.28;;;13.13;;
75997;SDS011;64685;48.762;44.822;2022-12-28T15:44:12;43.88;;;13.50;;
75997;SDS011;64685;48.762;44.822;2022-12-28T15:46:38;37.83;;;14.05;;
75997;SDS011;64685;48.762;44.822;2022-12-28T15:49:04;32.40;;;12.75;;
75997;SDS011;64685;48.762;44.822;2022-12-28T15:51:30;46.83;;;14.48;;
75997;SDS011;64685;48.762;44.822;2022-12-28T15:53:56;36.28;;;13.60;;
75997;SDS011;64685;48.762;44.822;2022-12-28T15:56:26;39.40;;;14.45;;
75997;SDS011;64685;48.762;44.822;2022-12-28T15:58:52;32.45;;;11.80;;
75997;SDS011;64685;48.762;44.822;2022-12-28T16:01:18;31.67;;;12.05;;
75997;SDS011;64685;48.762;44.822;2022-12-28T16:03:47;41.72;;;13.70;;
75997;SDS011;64685;48.762;44.822;2022-12-28T16:06:12;24.45;;;9.00;;
75997;SDS011;64685;48.762;44.822;2022-12-28T16:08:38;18.75;;;6.97;;
75997;SDS011;64685;48.762;44.822;2022-12-28T16:11:11;16.13;;;6.65;;
75997;SDS011;64685;48.762;44.822;2022-12-28T16:13:37;15.77;;;5.40;;
75997;SDS011;64685;48.762;44.822;2022-12-28T16:16:07;15.50;;;6.07;;
75997;SDS011;64685;48.762;44.822;2022-12-28T16:18:33;14.48;;;4.88;;
75997;SDS011;64685;48.762;44.822;2022-12-28T16:20:59;11.80;;;5.10;;
75997;SDS011;64685;48.762;44.822;2022-12-28T16:23:33;9.80;;;3.80;;
75997;SDS011;64685;48.762;44.822;2022-12-28T16:25:59;9.75;;;3.92;;
75997;SDS011;64685;48.762;44.822;2022-12-28T16:28:25;9.18;;;3.63;;
75997;SDS011;64685;48.762;44.822;2022-12-28T16:30:51;11.43;;;3.45;;
75997;SDS011;64685;48.762;44.822;2022-12-28T16:33:17;9.50;;;3.05;;
75997;SDS011;64685;48.762;44.822;2022-12-28T16:35:43;9.63;;;3.17;;
75997;SDS011;64685;48.762;44.822;2022-12-28T16:38:11;8.52;;;3.75;;
75997;SDS011;64685;48.762;44.822;2022-12-28T16:40:36;9.82;;;3.97;;
75997;SDS011;64685;48.762;44.822;2022-12-28T16:43:05;7.25;;;3.08;;
75997;SDS011;64685;48.762;44.822;2022-12-28T16:45:35;10.02;;;4.43;;
75997;SDS011;64685;48.762;44.822;2022-12-28T16:48:01;8.65;;;3.72;;
75997;SDS011;64685;48.762;44.822;2022-12-28T16:50:27;11.05;;;3.85;;
75997;SDS011;64685;48.762;44.822;2022-12-28T16:52:53;8.63;;;3.65;;
75997;SDS011;64685;48.762;44.822;2022-12-28T16:55:19;10.40;;;3.78;;